sensor_id;sensor_type;location;lat;lon;timestamp;P1;durP1;ratioP1;P2;durP2;ratioP2
51556;SDS011;38766;53.194;5.532;2023-03-01T00:01:05;20.40;;;14.05;;
51556;SDS011;38766;53.194;5.532;2023-03-01T00:03:33;26.58;;;14.32;;
51556;SDS011;38766;53.194;5.532;2023-03-01T00:05:59;20.02;;;14.45;;
51556;SDS011;38766;53.194;5.532;2023-03-01T00:08:26;20.92;;;13.95;;
51556;SDS011;38766;53.194;5.532;2023-03-01T00:11:02;18.92;;;12.73;;
51556;SDS011;38766;53.194;5.532;2023-03-01T00:13:30;22.92;;;13.80;;
51556;SDS011;38766;53.194;5.532;2023-03-01T00:15:56;21.92;;;14.23;;
51556;SDS011;38766;53.194;5.532;2023-03-01T00:18:21;22.30;;;14.13;;
51556;SDS011;38766;53.194;5.532;2023-03-01T00:20:51;22.77;;;13.75;;
51556;SDS011;38766;53.194;5.532;2023-03-01T00:23:20;20.15;;;13.38;;
51556;SDS011;38766;53.194;5.532;2023-03-01T00:25:47;23.40;;;14.25;;
51556;SDS011;38766;53.194;5.532;2023-03-01T00:28:13;20.83;;;13.73;;
51556;SDS011;38766;53.194;5.532;2023-03-01T00:30:39;20.25;;;13.82;;
51556;SDS011;38766;53.194;5.532;2023-03-01T00:33:05;23.35;;;14.00;;
51556;SDS011;38766;53.194;5.532;2023-03-01T00:35:34;20.00;;;14.13;;
51556;SDS011;38766;53.194;5.532;2023-03-01T00:38:00;21.08;;;13.45;;
51556;SDS011;38766;53.194;5.532;2023-03-01T00:40:26;23.05;;;14.25;;
51556;SDS011;38766;53.194;5.532;2023-03-01T00:42:53;22.25;;;14.38;;
51556;SDS011;38766;53.194;5.532;2023-03-01T00:45:19;24.23;;;14.52;;
51556;SDS011;38766;53.194;5.532;2023-03-01T00:47:45;22.35;;;13.85;;
51556;SDS011;38766;53.194;5.532;2023-03-01T00:50:11;21.08;;;12.70;;
51556;SDS011;38766;53.194;5.532;2023-03-01T00:52:37;20.83;;;13.75;;
51556;SDS011;38766;53.194;5.532;2023-03-01T00:55:03;23.13;;;13.85;;
51556;SDS011;38766;53.194;5.532;2023-03-01T00:57:29;22.40;;;13.25;;
51556;SDS011;38766;53.194;5.532;2023-03-01T00:59:55;23.58;;;14.27;;
51556;SDS011;38766;53.194;5.532;2023-03-01T01:02:21;20.50;;;13.27;;
51556;SDS011;38766;53.194;5.532;2023-03-01T01:04:47;23.20;;;14.38;;
51556;SDS011;38766;53.194;5.532;2023-03-01T01:07:13;20.63;;;12.55;;
51556;SDS011;38766;53.194;5.532;2023-03-01T01:09:39;21.02;;;13.45;;
51556;SDS011;38766;53.194;5.532;2023-03-01T01:12:05;20.05;;;12.82;;
51556;SDS011;38766;53.194;5.532;2023-03-01T01:14:31;23.17;;;12.73;;
51556;SDS011;38766;53.194;5.532;2023-03-01T01:16:57;18.33;;;12.20;;
51556;SDS011;38766;53.194;5.532;2023-03-01T01:19:23;21.55;;;13.32;;
51556;SDS011;38766;53.194;5.532;2023-03-01T01:21:50;22.27;;;13.75;;
51556;SDS011;38766;53.194;5.532;2023-03-01T01:24:17;26.50;;;14.48;;
51556;SDS011;38766;53.194;5.532;2023-03-01T01:26:43;26.60;;;15.15;;
51556;SDS011;38766;53.194;5.532;2023-03-01T01:29:10;21.52;;;13.60;;
51556;SDS011;38766;53.194;5.532;2023-03-01T01:31:36;22.33;;;13.45;;
51556;SDS011;38766;53.194;5.532;2023-03-01T01:34:04;26.90;;;15.38;;
51556;SDS011;38766;53.194;5.532;2023-03-01T01:36:32;25.75;;;15.27;;
51556;SDS011;38766;53.194;5.532;2023-03-01T01:38:58;24.08;;;14.85;;
51556;SDS011;38766;53.194;5.532;2023-03-01T01:41:25;23.15;;;15.27;;
51556;SDS011;38766;53.194;5.532;2023-03-01T01:47:23;25.02;;;15.68;;
51556;SDS011;38766;53.194;5.532;2023-03-01T01:52:08;25.42;;;15.95;;
51556;SDS011;38766;53.194;5.532;2023-03-01T01:57:06;30.17;;;17.52;;
51556;SDS011;38766;53.194;5.532;2023-03-01T01:59:35;25.08;;;15.50;;
51556;SDS011;38766;53.194;5.532;2023-03-01T02:02:03;24.33;;;15.98;;
51556;SDS011;38766;53.194;5.532;2023-03-01T02:04:29;25.80;;;16.20;;
51556;SDS011;38766;53.194;5.532;2023-03-01T02:06:58;24.83;;;15.40;;
51556;SDS011;38766;53.194;5.532;2023-03-01T02:09:28;25.73;;;16.13;;
51556;SDS011;38766;53.194;5.532;2023-03-01T02:11:55;32.53;;;16.73;;
51556;SDS011;38766;53.194;5.532;2023-03-01T02:14:22;26.35;;;15.93;;
51556;SDS011;38766;53.194;5.532;2023-03-01T02:16:47;25.17;;;15.48;;
51556;SDS011;38766;53.194;5.532;2023-03-01T02:19:18;24.80;;;15.50;;
51556;SDS011;38766;53.194;5.532;2023-03-01T02:22:04;26.50;;;15.88;;
51556;SDS011;38766;53.194;5.532;2023-03-01T02:24:40;25.13;;;14.85;;
51556;SDS011;38766;53.194;5.532;2023-03-01T02:27:36;25.83;;;15.88;;
51556;SDS011;38766;53.194;5.532;2023-03-01T02:30:10;27.33;;;15.43;;
51556;SDS011;38766;53.194;5.532;2023-03-01T02:32:38;23.33;;;14.73;;
51556;SDS011;38766;53.194;5.532;2023-03-01T02:35:07;24.15;;;13.95;;
51556;SDS011;38766;53.194;5.532;2023-03-01T02:37:35;25.65;;;13.63;;
51556;SDS011;38766;53.194;5.532;2023-03-01T02:40:02;22.80;;;14.52;;
51556;SDS011;38766;53.194;5.532;2023-03-01T02:45:06;24.10;;;14.25;;
51556;SDS011;38766;53.194;5.532;2023-03-01T02:47:31;22.73;;;13.13;;
51556;SDS011;38766;53.194;5.532;2023-03-01T02:49:57;22.88;;;14.35;;
51556;SDS011;38766;53.194;5.532;2023-03-01T02:52:29;21.38;;;13.80;;
51556;SDS011;38766;53.194;5.532;2023-03-01T02:55:12;25.88;;;15.25;;
51556;SDS011;38766;53.194;5.532;2023-03-01T03:00:09;25.17;;;14.60;;
51556;SDS011;38766;53.194;5.532;2023-03-01T03:02:58;25.48;;;15.55;;
51556;SDS011;38766;53.194;5.532;2023-03-01T03:05:25;28.65;;;14.82;;
51556;SDS011;38766;53.194;5.532;2023-03-01T03:07:53;25.08;;;15.10;;
51556;SDS011;38766;53.194;5.532;2023-03-01T03:10:20;26.38;;;15.45;;
51556;SDS011;38766;53.194;5.532;2023-03-01T03:12:50;40.75;;;15.70;;
51556;SDS011;38766;53.194;5.532;2023-03-01T03:15:17;35.40;;;15.52;;
51556;SDS011;38766;53.194;5.532;2023-03-01T03:17:42;72.35;;;14.38;;
51556;SDS011;38766;53.194;5.532;2023-03-01T03:20:09;23.90;;;12.77;;
51556;SDS011;38766;53.194;5.532;2023-03-01T03:22:39;56.45;;;13.90;;
51556;SDS011;38766;53.194;5.532;2023-03-01T03:25:08;40.92;;;14.50;;
51556;SDS011;38766;53.194;5.532;2023-03-01T03:27:36;32.60;;;14.63;;
51556;SDS011;38766;53.194;5.532;2023-03-01T03:30:03;44.08;;;15.02;;
51556;SDS011;38766;53.194;5.532;2023-03-01T03:32:34;32.55;;;14.60;;
51556;SDS011;38766;53.194;5.532;2023-03-01T03:35:00;25.40;;;15.23;;
51556;SDS011;38766;53.194;5.532;2023-03-01T03:37:26;24.98;;;14.98;;
51556;SDS011;38766;53.194;5.532;2023-03-01T03:40:10;28.83;;;15.93;;
51556;SDS011;38766;53.194;5.532;2023-03-01T03:42:40;25.88;;;14.38;;
51556;SDS011;38766;53.194;5.532;2023-03-01T03:45:06;25.05;;;15.07;;
51556;SDS011;38766;53.194;5.532;2023-03-01T03:47:32;23.52;;;14.40;;
51556;SDS011;38766;53.194;5.532;2023-03-01T03:49:58;26.83;;;14.85;;
51556;SDS011;38766;53.194;5.532;2023-03-01T03:52:23;27.52;;;14.65;;
51556;SDS011;38766;53.194;5.532;2023-03-01T03:54:49;28.52;;;14.70;;
51556;SDS011;38766;53.194;5.532;2023-03-01T03:57:14;24.83;;;14.48;;
51556;SDS011;38766;53.194;5.532;2023-03-01T03:59:40;27.30;;;14.43;;
51556;SDS011;38766;53.194;5.532;2023-03-01T04:02:06;19.90;;;12.75;;
51556;SDS011;38766;53.194;5.532;2023-03-01T04:04:33;20.00;;;12.88;;
51556;SDS011;38766;53.194;5.532;2023-03-01T04:06:59;35.38;;;13.32;;
51556;SDS011;38766;53.194;5.532;2023-03-01T04:09:25;42.67;;;13.07;;
51556;SDS011;38766;53.194;5.532;2023-03-01T04:11:50;42.65;;;12.65;;
51556;SDS011;38766;53.194;5.532;2023-03-01T04:14:16;49.92;;;13.80;;
51556;SDS011;38766;53.194;5.532;2023-03-01T04:16:42;102.40;;;15.95;;
51556;SDS011;38766;53.194;5.532;2023-03-01T04:19:07;55.17;;;14.00;;
51556;SDS011;38766;53.194;5.532;2023-03-01T04:21:34;47.42;;;13.35;;
51556;SDS011;38766;53.194;5.532;2023-03-01T04:24:01;22.58;;;13.05;;
51556;SDS011;38766;53.194;5.532;2023-03-01T04:26:28;23.73;;;12.32;;
51556;SDS011;38766;53.194;5.532;2023-03-01T04:28:54;21.02;;;12.50;;
51556;SDS011;38766;53.194;5.532;2023-03-01T04:31:20;125.88;;;15.18;;
51556;SDS011;38766;53.194;5.532;2023-03-01T04:33:48;93.90;;;14.52;;
51556;SDS011;38766;53.194;5.532;2023-03-01T04:36:19;41.42;;;13.35;;
51556;SDS011;38766;53.194;5.532;2023-03-01T04:38:47;99.20;;;15.55;;
51556;SDS011;38766;53.194;5.532;2023-03-01T04:41:15;97.53;;;14.23;;
51556;SDS011;38766;53.194;5.532;2023-03-01T04:43:42;85.63;;;13.88;;
51556;SDS011;38766;53.194;5.532;2023-03-01T04:46:08;61.03;;;12.82;;
51556;SDS011;38766;53.194;5.532;2023-03-01T04:48:37;106.00;;;15.05;;
51556;SDS011;38766;53.194;5.532;2023-03-01T04:51:03;58.42;;;12.93;;
51556;SDS011;38766;53.194;5.532;2023-03-01T04:53:30;53.65;;;13.23;;
51556;SDS011;38766;53.194;5.532;2023-03-01T04:55:57;71.20;;;13.80;;
51556;SDS011;38766;53.194;5.532;2023-03-01T04:58:23;136.88;;;15.65;;
51556;SDS011;38766;53.194;5.532;2023-03-01T05:00:50;48.28;;;12.98;;
51556;SDS011;38766;53.194;5.532;2023-03-01T05:03:17;95.00;;;13.45;;
51556;SDS011;38766;53.194;5.532;2023-03-01T05:05:43;57.67;;;14.05;;
51556;SDS011;38766;53.194;5.532;2023-03-01T05:08:11;55.30;;;13.52;;
51556;SDS011;38766;53.194;5.532;2023-03-01T05:10:44;56.42;;;12.23;;
51556;SDS011;38766;53.194;5.532;2023-03-01T05:13:11;66.05;;;14.27;;
51556;SDS011;38766;53.194;5.532;2023-03-01T05:15:46;59.70;;;12.60;;
51556;SDS011;38766;53.194;5.532;2023-03-01T05:18:14;62.10;;;13.25;;
51556;SDS011;38766;53.194;5.532;2023-03-01T05:20:39;47.25;;;12.57;;
51556;SDS011;38766;53.194;5.532;2023-03-01T05:23:06;32.65;;;12.55;;
51556;SDS011;38766;53.194;5.532;2023-03-01T05:25:34;18.90;;;11.23;;
51556;SDS011;38766;53.194;5.532;2023-03-01T05:28:05;26.88;;;11.77;;
51556;SDS011;38766;53.194;5.532;2023-03-01T05:30:35;16.92;;;10.77;;
51556;SDS011;38766;53.194;5.532;2023-03-01T05:33:04;21.20;;;10.82;;
51556;SDS011;38766;53.194;5.532;2023-03-01T05:35:32;18.85;;;10.70;;
51556;SDS011;38766;53.194;5.532;2023-03-01T05:37:58;23.02;;;11.38;;
51556;SDS011;38766;53.194;5.532;2023-03-01T05:40:24;18.85;;;11.55;;
51556;SDS011;38766;53.194;5.532;2023-03-01T05:42:52;20.50;;;12.10;;
51556;SDS011;38766;53.194;5.532;2023-03-01T05:45:19;30.25;;;10.23;;
51556;SDS011;38766;53.194;5.532;2023-03-01T05:47:47;14.68;;;9.55;;
51556;SDS011;38766;53.194;5.532;2023-03-01T05:52:39;22.70;;;10.50;;
51556;SDS011;38766;53.194;5.532;2023-03-01T05:55:05;16.42;;;10.13;;
51556;SDS011;38766;53.194;5.532;2023-03-01T05:57:31;24.48;;;10.57;;
51556;SDS011;38766;53.194;5.532;2023-03-01T05:59:57;15.75;;;11.20;;
51556;SDS011;38766;53.194;5.532;2023-03-01T06:02:22;44.25;;;11.95;;
51556;SDS011;38766;53.194;5.532;2023-03-01T06:04:48;25.73;;;10.80;;
51556;SDS011;38766;53.194;5.532;2023-03-01T06:07:13;16.77;;;10.27;;
51556;SDS011;38766;53.194;5.532;2023-03-01T06:09:39;27.48;;;10.93;;
51556;SDS011;38766;53.194;5.532;2023-03-01T06:12:05;16.98;;;10.00;;
51556;SDS011;38766;53.194;5.532;2023-03-01T06:14:30;15.35;;;9.98;;
51556;SDS011;38766;53.194;5.532;2023-03-01T06:16:57;16.80;;;9.77;;
51556;SDS011;38766;53.194;5.532;2023-03-01T06:19:23;26.63;;;11.23;;
51556;SDS011;38766;53.194;5.532;2023-03-01T06:21:48;20.90;;;10.45;;
51556;SDS011;38766;53.194;5.532;2023-03-01T06:24:14;19.20;;;10.93;;
51556;SDS011;38766;53.194;5.532;2023-03-01T06:26:40;15.50;;;10.30;;
51556;SDS011;38766;53.194;5.532;2023-03-01T06:29:05;14.73;;;9.90;;
51556;SDS011;38766;53.194;5.532;2023-03-01T06:31:32;16.67;;;9.88;;
51556;SDS011;38766;53.194;5.532;2023-03-01T06:33:58;15.18;;;10.25;;
51556;SDS011;38766;53.194;5.532;2023-03-01T06:36:23;18.08;;;10.80;;
51556;SDS011;38766;53.194;5.532;2023-03-01T06:38:49;14.75;;;10.48;;
51556;SDS011;38766;53.194;5.532;2023-03-01T06:41:14;14.25;;;8.85;;
51556;SDS011;38766;53.194;5.532;2023-03-01T06:43:40;16.63;;;9.75;;
51556;SDS011;38766;53.194;5.532;2023-03-01T06:46:05;16.17;;;10.18;;
51556;SDS011;38766;53.194;5.532;2023-03-01T06:48:34;15.07;;;10.88;;
51556;SDS011;38766;53.194;5.532;2023-03-01T06:51:00;18.35;;;12.93;;
51556;SDS011;38766;53.194;5.532;2023-03-01T06:53:29;19.35;;;13.40;;
51556;SDS011;38766;53.194;5.532;2023-03-01T06:55:58;17.90;;;13.15;;
51556;SDS011;38766;53.194;5.532;2023-03-01T06:58:25;16.23;;;11.70;;
51556;SDS011;38766;53.194;5.532;2023-03-01T07:00:51;16.25;;;10.48;;
51556;SDS011;38766;53.194;5.532;2023-03-01T07:03:17;16.17;;;11.18;;
51556;SDS011;38766;53.194;5.532;2023-03-01T07:05:43;15.63;;;10.68;;
51556;SDS011;38766;53.194;5.532;2023-03-01T07:08:09;15.82;;;9.98;;
51556;SDS011;38766;53.194;5.532;2023-03-01T07:10:35;14.85;;;10.13;;
51556;SDS011;38766;53.194;5.532;2023-03-01T07:13:01;17.38;;;11.25;;
51556;SDS011;38766;53.194;5.532;2023-03-01T07:15:27;17.13;;;11.32;;
51556;SDS011;38766;53.194;5.532;2023-03-01T07:17:52;20.02;;;13.57;;
51556;SDS011;38766;53.194;5.532;2023-03-01T07:20:18;17.05;;;11.50;;
51556;SDS011;38766;53.194;5.532;2023-03-01T07:22:50;17.23;;;11.60;;
51556;SDS011;38766;53.194;5.532;2023-03-01T07:25:16;16.25;;;11.77;;
51556;SDS011;38766;53.194;5.532;2023-03-01T07:27:42;17.83;;;12.20;;
51556;SDS011;38766;53.194;5.532;2023-03-01T07:30:08;17.17;;;12.07;;
51556;SDS011;38766;53.194;5.532;2023-03-01T07:32:34;14.52;;;10.77;;
51556;SDS011;38766;53.194;5.532;2023-03-01T07:34:59;16.60;;;10.77;;
51556;SDS011;38766;53.194;5.532;2023-03-01T07:37:25;23.63;;;14.32;;
51556;SDS011;38766;53.194;5.532;2023-03-01T07:39:51;28.95;;;17.48;;
51556;SDS011;38766;53.194;5.532;2023-03-01T07:42:16;56.88;;;23.00;;
51556;SDS011;38766;53.194;5.532;2023-03-01T07:44:42;43.00;;;21.27;;
51556;SDS011;38766;53.194;5.532;2023-03-01T07:47:08;35.97;;;21.42;;
51556;SDS011;38766;53.194;5.532;2023-03-01T07:49:33;37.97;;;21.75;;
51556;SDS011;38766;53.194;5.532;2023-03-01T07:51:59;40.70;;;23.60;;
51556;SDS011;38766;53.194;5.532;2023-03-01T07:54:25;34.72;;;22.67;;
51556;SDS011;38766;53.194;5.532;2023-03-01T07:56:51;42.05;;;21.85;;
51556;SDS011;38766;53.194;5.532;2023-03-01T07:59:16;46.47;;;22.55;;
51556;SDS011;38766;53.194;5.532;2023-03-01T08:01:42;50.47;;;23.65;;
51556;SDS011;38766;53.194;5.532;2023-03-01T08:04:08;53.92;;;23.85;;
51556;SDS011;38766;53.194;5.532;2023-03-01T08:06:35;50.90;;;23.75;;
51556;SDS011;38766;53.194;5.532;2023-03-01T08:09:01;51.65;;;23.52;;
51556;SDS011;38766;53.194;5.532;2023-03-01T08:11:27;43.90;;;21.60;;
51556;SDS011;38766;53.194;5.532;2023-03-01T08:13:53;38.13;;;20.80;;
51556;SDS011;38766;53.194;5.532;2023-03-01T08:16:20;52.92;;;24.38;;
51556;SDS011;38766;53.194;5.532;2023-03-01T08:18:45;61.53;;;26.00;;
51556;SDS011;38766;53.194;5.532;2023-03-01T08:21:15;58.60;;;24.30;;
51556;SDS011;38766;53.194;5.532;2023-03-01T08:23:42;58.50;;;25.35;;
51556;SDS011;38766;53.194;5.532;2023-03-01T08:26:09;64.95;;;27.13;;
51556;SDS011;38766;53.194;5.532;2023-03-01T08:28:37;58.97;;;26.45;;
51556;SDS011;38766;53.194;5.532;2023-03-01T08:31:12;58.22;;;25.20;;
51556;SDS011;38766;53.194;5.532;2023-03-01T08:33:41;49.08;;;22.17;;
51556;SDS011;38766;53.194;5.532;2023-03-01T08:36:07;42.00;;;22.25;;
51556;SDS011;38766;53.194;5.532;2023-03-01T08:38:33;43.80;;;20.88;;
51556;SDS011;38766;53.194;5.532;2023-03-01T08:41:00;42.45;;;21.50;;
51556;SDS011;38766;53.194;5.532;2023-03-01T08:43:28;35.55;;;19.95;;
51556;SDS011;38766;53.194;5.532;2023-03-01T08:45:54;40.90;;;21.02;;
51556;SDS011;38766;53.194;5.532;2023-03-01T08:48:20;28.50;;;18.50;;
51556;SDS011;38766;53.194;5.532;2023-03-01T08:50:45;32.25;;;19.65;;
51556;SDS011;38766;53.194;5.532;2023-03-01T08:53:11;34.40;;;19.10;;
51556;SDS011;38766;53.194;5.532;2023-03-01T08:55:37;32.47;;;19.35;;
51556;SDS011;38766;53.194;5.532;2023-03-01T08:58:02;26.92;;;17.45;;
51556;SDS011;38766;53.194;5.532;2023-03-01T09:00:28;32.97;;;18.77;;
51556;SDS011;38766;53.194;5.532;2023-03-01T09:02:53;29.23;;;18.20;;
51556;SDS011;38766;53.194;5.532;2023-03-01T09:05:19;26.75;;;17.42;;
51556;SDS011;38766;53.194;5.532;2023-03-01T09:07:45;21.27;;;14.93;;
51556;SDS011;38766;53.194;5.532;2023-03-01T09:10:10;24.25;;;14.63;;
51556;SDS011;38766;53.194;5.532;2023-03-01T09:12:36;22.45;;;14.40;;
51556;SDS011;38766;53.194;5.532;2023-03-01T09:15:04;21.98;;;14.85;;
51556;SDS011;38766;53.194;5.532;2023-03-01T09:17:30;21.67;;;14.02;;
51556;SDS011;38766;53.194;5.532;2023-03-01T09:19:56;18.63;;;12.70;;
51556;SDS011;38766;53.194;5.532;2023-03-01T09:22:22;21.05;;;13.75;;
51556;SDS011;38766;53.194;5.532;2023-03-01T09:24:47;18.63;;;13.02;;
51556;SDS011;38766;53.194;5.532;2023-03-01T09:27:13;19.20;;;13.70;;
51556;SDS011;38766;53.194;5.532;2023-03-01T09:29:39;19.95;;;14.25;;
51556;SDS011;38766;53.194;5.532;2023-03-01T09:32:05;17.92;;;13.05;;
51556;SDS011;38766;53.194;5.532;2023-03-01T09:34:33;18.52;;;13.18;;
51556;SDS011;38766;53.194;5.532;2023-03-01T09:37:18;19.17;;;13.57;;
51556;SDS011;38766;53.194;5.532;2023-03-01T09:39:44;18.73;;;13.32;;
51556;SDS011;38766;53.194;5.532;2023-03-01T09:42:11;14.68;;;11.85;;
51556;SDS011;38766;53.194;5.532;2023-03-01T09:44:40;16.50;;;11.93;;
51556;SDS011;38766;53.194;5.532;2023-03-01T09:47:27;17.05;;;11.60;;
51556;SDS011;38766;53.194;5.532;2023-03-01T09:52:43;16.08;;;10.95;;
51556;SDS011;38766;53.194;5.532;2023-03-01T10:01:53;15.52;;;10.32;;
51556;SDS011;38766;53.194;5.532;2023-03-01T10:04:12;12.98;;;10.23;;
51556;SDS011;38766;53.194;5.532;2023-03-01T10:09:45;16.15;;;10.07;;
51556;SDS011;38766;53.194;5.532;2023-03-01T10:12:17;12.75;;;9.82;;
51556;SDS011;38766;53.194;5.532;2023-03-01T10:15:07;12.02;;;9.30;;
51556;SDS011;38766;53.194;5.532;2023-03-01T10:17:47;14.18;;;10.15;;
51556;SDS011;38766;53.194;5.532;2023-03-01T10:20:15;12.23;;;9.82;;
51556;SDS011;38766;53.194;5.532;2023-03-01T10:22:46;12.65;;;9.88;;
51556;SDS011;38766;53.194;5.532;2023-03-01T10:25:15;13.07;;;10.15;;
51556;SDS011;38766;53.194;5.532;2023-03-01T10:30:52;11.35;;;9.45;;
51556;SDS011;38766;53.194;5.532;2023-03-01T10:33:20;12.70;;;9.93;;
51556;SDS011;38766;53.194;5.532;2023-03-01T10:35:49;11.75;;;9.90;;
51556;SDS011;38766;53.194;5.532;2023-03-01T10:38:16;13.45;;;10.10;;
51556;SDS011;38766;53.194;5.532;2023-03-01T10:40:59;13.75;;;9.43;;
51556;SDS011;38766;53.194;5.532;2023-03-01T10:43:46;13.13;;;9.68;;
51556;SDS011;38766;53.194;5.532;2023-03-01T10:46:30;13.25;;;9.00;;
51556;SDS011;38766;53.194;5.532;2023-03-01T10:51:46;10.38;;;8.43;;
51556;SDS011;38766;53.194;5.532;2023-03-01T10:54:17;11.18;;;8.27;;
51556;SDS011;38766;53.194;5.532;2023-03-01T10:56:48;14.55;;;9.10;;
51556;SDS011;38766;53.194;5.532;2023-03-01T10:59:26;9.95;;;8.27;;
51556;SDS011;38766;53.194;5.532;2023-03-01T11:05:15;8.38;;;7.47;;
51556;SDS011;38766;53.194;5.532;2023-03-01T11:07:48;11.38;;;8.13;;
51556;SDS011;38766;53.194;5.532;2023-03-01T11:10:19;10.52;;;8.25;;
51556;SDS011;38766;53.194;5.532;2023-03-01T11:12:48;10.50;;;8.32;;
51556;SDS011;38766;53.194;5.532;2023-03-01T11:15:21;12.88;;;9.02;;
51556;SDS011;38766;53.194;5.532;2023-03-01T11:17:51;10.05;;;8.55;;
51556;SDS011;38766;53.194;5.532;2023-03-01T11:20:32;9.07;;;7.63;;
51556;SDS011;38766;53.194;5.532;2023-03-01T11:23:13;14.43;;;7.30;;
51556;SDS011;38766;53.194;5.532;2023-03-01T11:25:42;7.80;;;6.65;;
51556;SDS011;38766;53.194;5.532;2023-03-01T11:28:13;8.35;;;7.15;;
51556;SDS011;38766;53.194;5.532;2023-03-01T11:30:58;10.10;;;8.07;;
51556;SDS011;38766;53.194;5.532;2023-03-01T11:38:44;8.50;;;6.53;;
51556;SDS011;38766;53.194;5.532;2023-03-01T11:41:18;10.30;;;7.03;;
51556;SDS011;38766;53.194;5.532;2023-03-01T11:51:42;10.30;;;7.43;;
51556;SDS011;38766;53.194;5.532;2023-03-01T11:54:22;8.75;;;7.38;;
51556;SDS011;38766;53.194;5.532;2023-03-01T11:57:03;9.30;;;7.65;;
51556;SDS011;38766;53.194;5.532;2023-03-01T11:59:44;9.15;;;7.40;;
51556;SDS011;38766;53.194;5.532;2023-03-01T12:05:00;9.32;;;7.50;;
51556;SDS011;38766;53.194;5.532;2023-03-01T12:16:15;9.38;;;7.55;;
51556;SDS011;38766;53.194;5.532;2023-03-01T12:24:59;13.37;;;8.60;;
51556;SDS011;38766;53.194;5.532;2023-03-01T12:35:39;10.27;;;8.52;;
51556;SDS011;38766;53.194;5.532;2023-03-01T12:38:16;10.50;;;8.00;;
51556;SDS011;38766;53.194;5.532;2023-03-01T12:51:14;11.32;;;9.30;;
51556;SDS011;38766;53.194;5.532;2023-03-01T12:53:47;12.95;;;9.60;;
51556;SDS011;38766;53.194;5.532;2023-03-01T12:56:19;12.38;;;9.05;;
51556;SDS011;38766;53.194;5.532;2023-03-01T13:01:31;11.57;;;8.85;;
51556;SDS011;38766;53.194;5.532;2023-03-01T13:07:16;11.05;;;8.90;;
51556;SDS011;38766;53.194;5.532;2023-03-01T13:17:51;15.10;;;10.23;;
51556;SDS011;38766;53.194;5.532;2023-03-01T13:20:20;10.68;;;8.38;;
51556;SDS011;38766;53.194;5.532;2023-03-01T13:22:59;14.60;;;10.43;;
51556;SDS011;38766;53.194;5.532;2023-03-01T13:25:28;12.73;;;9.48;;
51556;SDS011;38766;53.194;5.532;2023-03-01T13:28:17;11.85;;;9.98;;
51556;SDS011;38766;53.194;5.532;2023-03-01T13:30:58;13.40;;;9.77;;
51556;SDS011;38766;53.194;5.532;2023-03-01T13:35:53;12.60;;;10.55;;
51556;SDS011;38766;53.194;5.532;2023-03-01T13:41:11;14.40;;;10.98;;
51556;SDS011;38766;53.194;5.532;2023-03-01T13:43:38;13.52;;;10.65;;
51556;SDS011;38766;53.194;5.532;2023-03-01T13:48:45;14.85;;;11.52;;
51556;SDS011;38766;53.194;5.532;2023-03-01T13:51:20;14.55;;;10.60;;
51556;SDS011;38766;53.194;5.532;2023-03-01T13:53:52;16.77;;;11.13;;
51556;SDS011;38766;53.194;5.532;2023-03-01T13:56:21;13.68;;;10.85;;
51556;SDS011;38766;53.194;5.532;2023-03-01T14:01:34;13.10;;;10.52;;
51556;SDS011;38766;53.194;5.532;2023-03-01T14:04:01;12.32;;;10.30;;
51556;SDS011;38766;53.194;5.532;2023-03-01T14:06:28;14.10;;;10.85;;
51556;SDS011;38766;53.194;5.532;2023-03-01T14:15:04;17.88;;;11.45;;
51556;SDS011;38766;53.194;5.532;2023-03-01T14:20:21;14.52;;;11.43;;
51556;SDS011;38766;53.194;5.532;2023-03-01T14:22:56;16.70;;;11.23;;
51556;SDS011;38766;53.194;5.532;2023-03-01T14:25:26;15.38;;;10.73;;
51556;SDS011;38766;53.194;5.532;2023-03-01T14:28:17;14.13;;;10.90;;
51556;SDS011;38766;53.194;5.532;2023-03-01T14:30:47;13.20;;;10.75;;
51556;SDS011;38766;53.194;5.532;2023-03-01T14:33:19;13.32;;;10.45;;
51556;SDS011;38766;53.194;5.532;2023-03-01T14:36:00;13.52;;;9.98;;
51556;SDS011;38766;53.194;5.532;2023-03-01T14:38:31;13.40;;;10.20;;
51556;SDS011;38766;53.194;5.532;2023-03-01T14:41:06;14.57;;;11.25;;
51556;SDS011;38766;53.194;5.532;2023-03-01T14:43:36;14.18;;;10.65;;
51556;SDS011;38766;53.194;5.532;2023-03-01T14:46:05;14.35;;;10.85;;
51556;SDS011;38766;53.194;5.532;2023-03-01T14:48:31;13.35;;;10.35;;
51556;SDS011;38766;53.194;5.532;2023-03-01T14:50:57;13.88;;;9.98;;
51556;SDS011;38766;53.194;5.532;2023-03-01T14:53:25;13.27;;;10.15;;
51556;SDS011;38766;53.194;5.532;2023-03-01T14:55:59;15.57;;;9.88;;
51556;SDS011;38766;53.194;5.532;2023-03-01T14:58:27;12.95;;;9.48;;
51556;SDS011;38766;53.194;5.532;2023-03-01T15:01:01;13.40;;;9.60;;
51556;SDS011;38766;53.194;5.532;2023-03-01T15:06:10;16.45;;;10.02;;
51556;SDS011;38766;53.194;5.532;2023-03-01T15:08:41;15.07;;;10.60;;
51556;SDS011;38766;53.194;5.532;2023-03-01T15:16:21;13.95;;;10.30;;
51556;SDS011;38766;53.194;5.532;2023-03-01T15:19:05;15.30;;;10.50;;
51556;SDS011;38766;53.194;5.532;2023-03-01T15:21:32;12.70;;;9.80;;
51556;SDS011;38766;53.194;5.532;2023-03-01T15:26:55;14.15;;;9.88;;
51556;SDS011;38766;53.194;5.532;2023-03-01T15:29:23;14.25;;;10.18;;
51556;SDS011;38766;53.194;5.532;2023-03-01T15:32:05;14.20;;;10.15;;
51556;SDS011;38766;53.194;5.532;2023-03-01T15:34:47;14.05;;;10.10;;
51556;SDS011;38766;53.194;5.532;2023-03-01T15:40:23;12.45;;;9.20;;
51556;SDS011;38766;53.194;5.532;2023-03-01T15:42:57;13.48;;;9.70;;
51556;SDS011;38766;53.194;5.532;2023-03-01T15:45:28;13.75;;;9.05;;
51556;SDS011;38766;53.194;5.532;2023-03-01T15:47:58;14.68;;;8.88;;
51556;SDS011;38766;53.194;5.532;2023-03-01T15:52:58;10.77;;;8.75;;
51556;SDS011;38766;53.194;5.532;2023-03-01T15:55:26;11.38;;;8.52;;
51556;SDS011;38766;53.194;5.532;2023-03-01T15:58:28;13.20;;;8.45;;
51556;SDS011;38766;53.194;5.532;2023-03-01T16:00:48;11.43;;;8.45;;
51556;SDS011;38766;53.194;5.532;2023-03-01T16:03:20;13.30;;;8.18;;
51556;SDS011;38766;53.194;5.532;2023-03-01T16:05:47;13.95;;;9.25;;
51556;SDS011;38766;53.194;5.532;2023-03-01T16:08:15;13.35;;;9.45;;
51556;SDS011;38766;53.194;5.532;2023-03-01T16:10:42;13.05;;;9.57;;
51556;SDS011;38766;53.194;5.532;2023-03-01T16:13:11;15.80;;;9.43;;
51556;SDS011;38766;53.194;5.532;2023-03-01T16:15:37;17.88;;;10.77;;
51556;SDS011;38766;53.194;5.532;2023-03-01T16:18:04;14.82;;;10.35;;
51556;SDS011;38766;53.194;5.532;2023-03-01T16:20:31;17.13;;;9.98;;
51556;SDS011;38766;53.194;5.532;2023-03-01T16:22:58;14.93;;;10.82;;
51556;SDS011;38766;53.194;5.532;2023-03-01T16:25:25;12.95;;;9.57;;
51556;SDS011;38766;53.194;5.532;2023-03-01T16:27:51;17.77;;;10.55;;
51556;SDS011;38766;53.194;5.532;2023-03-01T16:30:18;15.48;;;10.00;;
51556;SDS011;38766;53.194;5.532;2023-03-01T16:32:46;15.65;;;9.65;;
51556;SDS011;38766;53.194;5.532;2023-03-01T16:35:13;13.27;;;9.80;;
51556;SDS011;38766;53.194;5.532;2023-03-01T16:37:41;16.13;;;9.40;;
51556;SDS011;38766;53.194;5.532;2023-03-01T16:40:15;15.02;;;9.88;;
51556;SDS011;38766;53.194;5.532;2023-03-01T16:42:43;14.25;;;8.93;;
51556;SDS011;38766;53.194;5.532;2023-03-01T16:45:09;14.35;;;9.65;;
51556;SDS011;38766;53.194;5.532;2023-03-01T16:47:35;12.52;;;9.02;;
51556;SDS011;38766;53.194;5.532;2023-03-01T16:50:00;13.70;;;9.45;;
51556;SDS011;38766;53.194;5.532;2023-03-01T16:52:27;15.70;;;10.18;;